Accueil
METAR-TAF:

METAR-TAF

Aéroports :

Base aérienne Volkel-Uden

Uden, Pays-Bas

latitude: 51-39N, longitude: 005-42E, altitude: 22 m

Observation

Le bulletin a été fait il y a 29 minutes, à 14:55 UTC
Vent 4 kt de sud
Température 10°C
Humidité 76%
Pression 1020 hPa
Visibilité 10 km ou plus
Ciel couvert à une hauteur de 22000 ft

METAR: EHVK 241455Z AUTO 17004KT 9999 OVC220 10/06 Q1020 BLU NOSIG

Heure: 16:24 (15:24 UTC)

Prévision

Le bulletin a été fait il y a 1 heure et 51 minutes, à 13:33 UTC
Prévision valable du 24 à 14 UTC au 25 à 02 UTC
Vent 7 kt de sud
Visibilité 10 km ou plus
pas de nuages en-dessous de 1500 mètres et pas de cumulonimbus.

TAF: EHVK 241333Z 2414/2502 19007KT CAVOK

Observations et prévisions météorologiques de plus de 4000 aéroports (messages METAR et TAF).

Les stations disponibles sont représentées par des disques jaunes et rouges sur la carte.

Passer la souris dessus pour voir le nom de la station.

Cliquer dessus pour voir les observations et prévisions météorologiques.

Pour changer de carte: cliquez sur les boutons verts avec une croix noire pour zoomer, sur le bouton vert avec un tiret pour effectuer un zoom arrière, ou sur les flèches vertes pour les cartes adjacentes.


METAR-TAF: